createdAt,value
2023-01-20T00:02:53.996Z,-1.72
2023-01-20T00:06:05.037Z,-1.75
2023-01-20T00:09:16.581Z,-1.72
2023-01-20T00:12:26.027Z,-1.73
2023-01-20T00:15:36.364Z,-1.77
2023-01-20T04:02:23.356Z,-3.30
2023-01-20T04:10:18.575Z,-3.31
2023-01-20T04:13:28.478Z,-3.43
2023-01-20T04:16:38.943Z,-3.42
2023-01-20T04:19:52.850Z,-3.34
2023-01-20T04:23:25.170Z,-3.29
2023-01-20T04:26:35.013Z,-3.20
2023-01-20T04:29:44.903Z,-3.13
2023-01-20T04:32:54.794Z,-3.06
2023-01-20T04:36:06.280Z,-3.11
2023-01-20T04:39:16.187Z,-3.19
2023-01-20T04:42:25.957Z,-3.17
2023-01-20T04:45:35.731Z,-3.07
2023-01-20T04:48:46.432Z,-3.00
2023-01-20T04:51:57.645Z,-2.95
2023-01-20T04:55:08.270Z,-2.94
2023-01-20T04:58:18.162Z,-2.96
2023-01-20T05:01:28.169Z,-2.91
2023-01-20T05:04:38.118Z,-2.90
2023-01-20T05:07:53.362Z,-2.86
2023-01-20T05:11:03.654Z,-2.85
2023-01-20T05:14:14.473Z,-2.81
2023-01-20T05:17:24.346Z,-2.81
2023-01-20T05:20:34.307Z,-2.78
2023-01-20T05:23:45.436Z,-2.73
2023-01-20T05:26:55.377Z,-2.72
2023-01-20T05:30:05.963Z,-2.68
2023-01-20T05:33:15.838Z,-2.66
2023-01-20T05:36:25.776Z,-2.58
2023-01-20T05:39:37.028Z,-2.51
2023-01-20T05:42:46.859Z,-2.44
2023-01-20T05:45:56.857Z,-2.49
2023-01-20T05:49:06.787Z,-2.44
2023-01-20T05:52:16.725Z,-2.37
2023-01-20T05:55:27.903Z,-2.33
2023-01-20T05:58:37.727Z,-2.27
2023-01-20T07:50:04.848Z,-1.42
2023-01-20T07:53:14.457Z,-1.44
2023-01-20T07:56:25.958Z,-1.39
2023-01-20T07:59:35.702Z,-1.31
2023-01-20T08:02:45.280Z,-1.27
2023-01-20T08:05:56.011Z,-1.19
2023-01-20T08:09:05.847Z,-1.04
2023-01-20T08:12:15.434Z,-0.89
2023-01-20T08:15:25.110Z,-0.76
2023-01-20T08:18:36.186Z,-0.69
2023-01-20T08:21:47.036Z,-0.70
2023-01-20T08:24:56.535Z,-0.67
2023-01-20T08:28:06.408Z,-0.55
2023-01-20T08:31:18.946Z,-0.39
2023-01-20T08:34:29.456Z,-0.23
2023-01-20T08:37:40.312Z,-0.10
2023-01-20T08:40:49.835Z,0.05
2023-01-20T08:43:59.883Z,0.17
2023-01-20T08:47:09.385Z,0.32
2023-01-20T08:50:19.247Z,0.46
2023-01-20T08:53:30.044Z,0.57
2023-01-20T08:56:39.717Z,0.66
2023-01-20T08:59:50.629Z,0.69
2023-01-20T09:03:00.160Z,0.76
2023-01-20T09:06:10.770Z,0.80
2023-01-20T09:09:23.221Z,0.81
2023-01-20T09:12:32.804Z,0.83
2023-01-20T09:15:42.361Z,0.90
2023-01-20T09:18:51.877Z,0.96
2023-01-20T09:22:01.514Z,0.94
2023-01-20T09:25:14.951Z,1.10
2023-01-20T09:28:24.662Z,1.35
2023-01-20T09:31:34.307Z,1.52
2023-01-20T09:34:43.877Z,1.53
2023-01-20T09:38:06.129Z,1.41
2023-01-20T09:41:30.283Z,1.15
2023-01-20T09:44:47.948Z,1.17
2023-01-20T09:48:14.010Z,1.39
2023-01-20T09:51:42.466Z,1.78
2023-01-20T09:54:59.298Z,2.08
2023-01-20T09:58:17.600Z,2.32
2023-01-20T10:01:31.492Z,2.45
2023-01-20T10:04:44.730Z,2.35
2023-01-20T10:07:59.553Z,2.10
2023-01-20T10:11:13.051Z,2.08
2023-01-20T10:14:30.417Z,2.45
2023-01-20T10:17:46.923Z,2.95
2023-01-20T10:21:02.237Z,3.43
2023-01-20T10:24:16.105Z,3.90
2023-01-20T10:27:29.551Z,4.20
2023-01-20T10:30:40.866Z,4.55
2023-01-20T10:33:53.958Z,4.73
2023-01-20T10:37:07.752Z,4.68
2023-01-20T10:40:35.272Z,4.64
2023-01-20T10:43:45.413Z,4.40
2023-01-20T10:47:13.580Z,4.69
2023-01-20T10:50:37.459Z,4.71
2023-01-20T10:53:54.473Z,4.84
2023-01-20T10:57:06.737Z,5.00
2023-01-20T11:00:23.595Z,5.09
2023-01-20T11:03:38.042Z,4.94
2023-01-20T11:06:51.674Z,4.81
2023-01-20T11:10:14.697Z,4.69
2023-01-20T11:13:24.408Z,4.66
2023-01-20T11:16:34.330Z,4.96
2023-01-20T11:19:51.396Z,4.95
2023-01-20T11:23:01.236Z,4.96
2023-01-20T11:26:20.243Z,4.74
2023-01-20T11:29:31.564Z,4.46
2023-01-20T11:32:41.148Z,4.15
2023-01-20T11:36:01.444Z,4.12
2023-01-20T11:39:30.639Z,4.33
2023-01-20T11:42:46.081Z,3.77
2023-01-20T11:46:11.632Z,3.17
2023-01-20T11:49:23.893Z,3.27
2023-01-20T11:52:36.719Z,3.28
2023-01-20T11:55:51.058Z,3.57
2023-01-20T11:59:02.194Z,4.06
2023-01-20T12:02:24.623Z,4.29
2023-01-20T12:05:40.124Z,4.29
2023-01-20T12:08:56.011Z,4.27
2023-01-20T12:12:12.975Z,4.37
2023-01-20T12:15:24.811Z,4.18
2023-01-20T12:18:37.726Z,3.98
2023-01-20T12:21:53.263Z,4.05
2023-01-20T12:25:15.950Z,4.36
2023-01-20T12:28:32.018Z,4.38
2023-01-20T12:31:41.597Z,4.12
2023-01-20T12:34:51.627Z,4.04
2023-01-20T12:38:08.306Z,3.42
2023-01-20T12:41:42.472Z,3.24
2023-01-20T12:44:57.306Z,3.07
2023-01-20T12:48:21.042Z,3.21
2023-01-20T12:51:42.619Z,3.34
2023-01-20T12:55:03.543Z,3.49
2023-01-20T12:58:24.745Z,3.80
2023-01-20T13:01:43.320Z,3.92
2023-01-20T13:05:12.411Z,4.16
2023-01-20T13:08:25.330Z,4.04
2023-01-20T13:14:47.203Z,4.15
2023-01-20T13:18:16.311Z,4.14
2023-01-20T13:21:26.471Z,4.39
2023-01-20T13:24:37.652Z,4.35
2023-01-20T13:27:51.195Z,4.30
2023-01-20T13:31:23.419Z,3.87
2023-01-20T13:34:36.515Z,3.99
2023-01-20T13:37:50.516Z,3.76
2023-01-20T13:41:03.472Z,3.52
2023-01-20T13:44:27.500Z,3.36
2023-01-20T13:47:51.906Z,3.20
2023-01-20T13:51:44.859Z,3.28
2023-01-20T13:54:56.938Z,3.37
2023-01-20T13:58:13.980Z,3.14
2023-01-20T14:01:23.942Z,3.24
2023-01-20T14:04:35.097Z,3.07
2023-01-20T14:07:45.168Z,3.17
2023-01-20T14:11:07.324Z,3.20
2023-01-20T14:14:20.399Z,2.98
2023-01-20T14:17:30.299Z,3.01
2023-01-20T14:20:42.113Z,3.11
2023-01-20T14:23:52.421Z,3.21
2023-01-20T14:27:10.176Z,3.24
2023-01-20T14:30:23.769Z,3.18
2023-01-20T14:33:33.740Z,2.73
2023-01-20T14:36:46.106Z,2.74
2023-01-20T14:39:58.732Z,2.80
2023-01-20T14:43:18.445Z,2.74
2023-01-20T14:46:29.793Z,2.68
2023-01-20T14:49:40.361Z,2.63
2023-01-20T14:52:51.574Z,2.70
2023-01-20T14:56:03.791Z,2.76
2023-01-20T14:59:20.521Z,2.80
2023-01-20T15:02:33.312Z,2.82
2023-01-20T15:05:54.534Z,2.81
2023-01-20T15:09:25.717Z,2.62
2023-01-20T15:12:40.358Z,2.40
2023-01-20T15:15:50.338Z,2.45
2023-01-20T15:19:18.554Z,2.51
2023-01-20T15:22:28.880Z,2.58
2023-01-20T15:25:40.251Z,2.59
2023-01-20T15:28:50.407Z,2.55
2023-01-20T15:32:02.060Z,2.53
2023-01-20T15:35:15.483Z,2.60
2023-01-20T15:38:26.471Z,2.62
2023-01-20T15:41:37.857Z,2.58
2023-01-20T15:44:48.301Z,2.53
2023-01-20T15:47:58.583Z,2.44
2023-01-20T15:51:14.774Z,2.26
2023-01-20T15:54:24.877Z,2.24
2023-01-20T15:57:39.963Z,2.10
2023-01-20T16:00:51.142Z,2.07
2023-01-20T16:04:01.006Z,1.85
2023-01-20T16:07:13.338Z,1.72
2023-01-20T16:10:22.948Z,1.24
2023-01-20T16:13:34.050Z,1.10
2023-01-20T16:16:43.628Z,1.05
2023-01-20T16:19:53.234Z,1.00
2023-01-20T16:23:02.910Z,1.05
2023-01-20T16:26:19.956Z,1.10
2023-01-20T16:29:31.005Z,1.07
2023-01-20T16:32:40.617Z,1.21
2023-01-20T16:35:52.163Z,1.29
2023-01-20T16:39:01.812Z,1.31
2023-01-20T16:42:12.608Z,1.33
2023-01-20T16:45:27.763Z,1.20
2023-01-20T16:48:37.684Z,1.29
2023-01-20T16:51:47.487Z,1.26
2023-01-20T16:54:57.369Z,1.24
2023-01-20T16:58:08.453Z,1.22
2023-01-20T17:01:24.530Z,1.29
2023-01-20T17:04:34.143Z,1.29
2023-01-20T17:07:43.668Z,1.31
2023-01-20T17:10:53.273Z,1.32
2023-01-20T17:14:05.010Z,1.37
2023-01-20T17:17:15.983Z,1.33
2023-01-20T17:20:26.825Z,1.27
2023-01-20T17:23:36.354Z,1.15
2023-01-20T17:26:45.861Z,1.13
2023-01-20T17:29:55.401Z,1.16
2023-01-20T17:33:06.214Z,1.01
2023-01-20T17:36:17.392Z,1.07
2023-01-20T17:39:27.017Z,1.06
2023-01-20T17:42:36.547Z,1.01
2023-01-20T17:45:46.391Z,1.03
2023-01-20T17:48:59.072Z,1.01
2023-01-20T17:52:08.663Z,1.07
2023-01-20T17:55:18.512Z,1.14
2023-01-20T17:58:31.333Z,1.08
2023-01-20T18:01:40.916Z,1.12
2023-01-20T18:04:51.816Z,1.18
2023-01-20T18:08:01.397Z,1.23
2023-01-20T18:11:14.865Z,1.29
2023-01-20T18:14:24.692Z,1.31
2023-01-20T18:17:34.525Z,1.34
2023-01-20T18:20:45.484Z,1.38
2023-01-20T18:23:55.408Z,1.38
2023-01-20T18:27:04.963Z,1.38
2023-01-20T18:30:16.403Z,1.39
2023-01-20T18:33:26.228Z,1.35
2023-01-20T18:36:39.876Z,1.37
2023-01-20T18:39:49.580Z,1.39
2023-01-20T18:42:59.166Z,1.36
2023-01-20T18:46:10.260Z,1.35
2023-01-20T18:49:20.185Z,1.34
2023-01-20T18:52:31.000Z,1.29
2023-01-20T18:55:40.608Z,1.25
2023-01-20T18:58:50.175Z,1.29
2023-01-20T19:01:59.741Z,1.31
2023-01-20T19:05:09.377Z,1.30
2023-01-20T19:08:20.144Z,1.27
2023-01-20T19:11:32.288Z,1.29
2023-01-20T19:14:41.842Z,1.31
2023-01-20T19:17:51.870Z,1.37
2023-01-20T19:21:04.624Z,1.37
2023-01-20T19:24:19.664Z,1.40
2023-01-20T19:27:29.274Z,1.42
2023-01-20T19:30:39.166Z,1.39
2023-01-20T19:33:49.967Z,1.08
2023-01-20T19:37:00.507Z,1.03
2023-01-20T19:40:12.225Z,1.10
2023-01-20T19:43:21.860Z,1.09
2023-01-20T19:49:42.296Z,1.22
2023-01-20T19:52:57.228Z,1.27
2023-01-20T19:56:23.793Z,1.33
2023-01-20T19:59:36.121Z,1.29
2023-01-20T20:02:50.025Z,1.33
2023-01-20T20:06:01.291Z,1.32
2023-01-20T20:09:14.524Z,1.31
2023-01-20T20:12:29.636Z,1.33
2023-01-20T20:15:41.867Z,1.29
2023-01-20T20:18:57.199Z,1.28
2023-01-20T20:22:12.846Z,1.29
2023-01-20T20:25:25.191Z,1.35
2023-01-20T20:28:39.969Z,1.41
2023-01-20T20:31:56.124Z,1.41
2023-01-20T20:35:11.046Z,1.41
2023-01-20T20:38:22.185Z,1.43
2023-01-20T20:41:36.980Z,1.45
2023-01-20T20:44:51.477Z,1.49
2023-01-20T20:48:01.663Z,1.52
2023-01-20T20:51:13.825Z,1.53
2023-01-20T20:54:23.865Z,1.55
2023-01-20T20:57:34.363Z,1.58
2023-01-20T21:00:51.504Z,1.58
2023-01-20T21:04:01.807Z,1.59
2023-01-20T21:07:12.428Z,1.58
2023-01-20T21:10:22.769Z,1.60
2023-01-20T21:13:33.546Z,1.61
2023-01-20T21:16:45.135Z,1.60
2023-01-20T21:19:55.424Z,1.56
2023-01-20T21:23:05.605Z,1.56
2023-01-20T21:29:56.959Z,1.49
2023-01-20T21:33:09.612Z,1.50
2023-01-20T21:36:19.949Z,1.47
2023-01-20T21:39:30.343Z,1.49
2023-01-20T21:42:40.623Z,1.43
2023-01-20T21:45:53.742Z,1.45
2023-01-20T21:49:16.058Z,1.43
2023-01-20T21:52:40.552Z,1.36
2023-01-20T21:55:51.044Z,1.36
2023-01-20T21:59:02.622Z,1.29
2023-01-20T22:02:13.770Z,1.30
2023-01-20T22:05:25.557Z,1.30
2023-01-20T22:08:35.800Z,1.32
2023-01-20T22:11:46.865Z,1.38
2023-01-20T22:14:57.137Z,1.38
2023-01-20T22:18:07.661Z,1.32
2023-01-20T22:21:19.568Z,1.26
2023-01-20T22:24:30.204Z,1.18
2023-01-20T22:27:40.388Z,1.20
2023-01-20T22:30:50.676Z,1.22
2023-01-20T22:34:04.133Z,1.21
2023-01-20T22:37:16.349Z,1.24
2023-01-20T22:40:26.513Z,1.25
2023-01-20T22:43:38.653Z,1.27
2023-01-20T22:46:48.738Z,1.26
2023-01-20T22:49:58.904Z,1.32
2023-01-20T22:53:10.503Z,1.36
2023-01-20T22:56:24.905Z,1.40
2023-01-20T22:59:35.890Z,1.31
2023-01-20T23:02:46.097Z,1.29
2023-01-20T23:05:58.000Z,1.23
2023-01-20T23:09:12.852Z,1.23
2023-01-20T23:12:23.165Z,1.23
2023-01-20T23:15:33.419Z,1.25
2023-01-20T23:18:43.878Z,1.24
2023-01-20T23:21:55.128Z,1.26
2023-01-20T23:25:08.569Z,1.30
2023-01-20T23:28:18.995Z,1.33
2023-01-20T23:31:33.367Z,1.30
2023-01-20T23:34:43.911Z,1.33
2023-01-20T23:37:53.978Z,1.31
2023-01-20T23:41:05.842Z,1.26
2023-01-20T23:44:16.111Z,1.30
2023-01-20T23:47:26.273Z,1.28
2023-01-20T23:50:36.484Z,1.21
2023-01-20T23:53:46.552Z,1.26
2023-01-20T23:56:57.940Z,1.29
